地図

経路データ

SID SEASON NUMBER BASIN SUBBASIN NAME ISO_TIME NATURE LAT LON WMO_WIND WMO_PRES WMO_AGENCY TRACK_TYPE DIST2LAND LANDFALL IFLAG USA_AGENCY USA_ATCF_ID USA_LAT USA_LON USA_RECORD USA_STATUS USA_WIND USA_PRES USA_SSHS USA_R34_NE USA_R34_SE USA_R34_SW USA_R34_NW USA_R50_NE USA_R50_SE USA_R50_SW USA_R50_NW USA_R64_NE USA_R64_SE USA_R64_SW USA_R64_NW USA_POCI USA_ROCI USA_RMW USA_EYE TOKYO_LAT TOKYO_LON TOKYO_GRADE TOKYO_WIND TOKYO_PRES TOKYO_R50_DIR TOKYO_R50_LONG TOKYO_R50_SHORT TOKYO_R30_DIR TOKYO_R30_LONG TOKYO_R30_SHORT TOKYO_LAND CMA_LAT CMA_LON CMA_CAT CMA_WIND CMA_PRES HKO_LAT HKO_LON HKO_CAT HKO_WIND HKO_PRES NEWDELHI_LAT NEWDELHI_LON NEWDELHI_GRADE NEWDELHI_WIND NEWDELHI_PRES NEWDELHI_CI NEWDELHI_DP NEWDELHI_POCI REUNION_LAT REUNION_LON REUNION_TYPE REUNION_WIND REUNION_PRES REUNION_TNUM REUNION_CI REUNION_RMW REUNION_R34_NE REUNION_R34_SE REUNION_R34_SW REUNION_R34_NW REUNION_R50_NE REUNION_R50_SE REUNION_R50_SW REUNION_R50_NW REUNION_R64_NE REUNION_R64_SE REUNION_R64_SW REUNION_R64_NW BOM_LAT BOM_LON BOM_TYPE BOM_WIND BOM_PRES BOM_TNUM BOM_CI BOM_RMW BOM_R34_NE BOM_R34_SE BOM_R34_SW BOM_R34_NW BOM_R50_NE BOM_R50_SE BOM_R50_SW BOM_R50_NW BOM_R64_NE BOM_R64_SE BOM_R64_SW BOM_R64_NW BOM_ROCI BOM_POCI BOM_EYE BOM_POS_METHOD BOM_PRES_METHOD NADI_LAT NADI_LON NADI_CAT NADI_WIND NADI_PRES WELLINGTON_LAT WELLINGTON_LON WELLINGTON_WIND WELLINGTON_PRES DS824_LAT DS824_LON DS824_STAGE DS824_WIND DS824_PRES TD9636_LAT TD9636_LON TD9636_STAGE TD9636_WIND TD9636_PRES TD9635_LAT TD9635_LON TD9635_WIND TD9635_PRES TD9635_ROCI NEUMANN_LAT NEUMANN_LON NEUMANN_CLASS NEUMANN_WIND NEUMANN_PRES MLC_LAT MLC_LON MLC_CLASS MLC_WIND MLC_PRES USA_GUST BOM_GUST BOM_GUST_PER REUNION_GUST REUNION_GUST_PER USA_SEAHGT USA_SEARAD_NE USA_SEARAD_SE USA_SEARAD_SW USA_SEARAD_NW STORM_SPEED STORM_DIR
1988234N13339 1988 59 NA NA NOT_NAMED 1988-08-20 12:00:00 TS 13.0000 -21.0000 25 hurdat_atl main 423 423 O_____________ hurdat_atl AL151988 13.0000 -21.0000 TD 25 -1 3 275
1988234N13339 1988 59 NA NA NOT_NAMED 1988-08-20 15:00:00 TS 13.0125 -21.1500 main 432 432 P_____________ AL151988 13.0125 -21.1500 TD 25 -1 3 270
1988234N13339 1988 59 NA NA NOT_NAMED 1988-08-20 18:00:00 TS 13.0000 -21.3000 25 hurdat_atl main 452 452 O_____________ hurdat_atl AL151988 13.0000 -21.3000 TD 25 -1 3 260
1988234N13339 1988 59 NA NA NOT_NAMED 1988-08-20 21:00:00 TS 12.9625 -21.4501 main 472 472 P_____________ AL151988 12.9625 -21.4501 TD 25 -1 3 270
1988234N13339 1988 59 NA NA NOT_NAMED 1988-08-21 00:00:00 TS 13.0000 -21.6000 25 hurdat_atl main 482 482 O_____________ hurdat_atl AL151988 13.0000 -21.6000 TD 25 -1 4 307
1988234N13339 1988 59 NA NA NOT_NAMED 1988-08-21 03:00:00 TS 13.1900 -21.7649 main 493 489 P_____________ AL151988 13.1900 -21.7649 TD 27 -1 6 330
1988234N13339 1988 59 NA NA NOT_NAMED 1988-08-21 06:00:00 TS 13.5000 -21.9000 30 hurdat_atl main 493 482 O_____________ hurdat_atl AL151988 13.5000 -21.9000 TD 30 -1 7 346
1988234N13339 1988 59 NA NA NOT_NAMED 1988-08-21 09:00:00 TS 13.8774 -21.9352 main 482 480 P_____________ AL151988 13.8774 -21.9352 TD 30 -1 8 353
1988234N13339 1988 59 NA NA NOT_NAMED 1988-08-21 12:00:00 TS 14.3000 -22.0000 30 hurdat_atl main 486 485 O_____________ hurdat_atl AL151988 14.3000 -22.0000 TD 30 -1 9 341
1988234N13339 1988 59 NA NA NOT_NAMED 1988-08-21 15:00:00 TS 14.6925 -22.2200 main 505 505 P_____________ AL151988 14.6925 -22.2200 TD 30 -1 9 329
1988234N13339 1988 59 NA NA NOT_NAMED 1988-08-21 18:00:00 TS 15.1000 -22.5000 30 hurdat_atl main 539 539 O_____________ hurdat_atl AL151988 15.1000 -22.5000 TD 30 -1 10 331
1988234N13339 1988 59 NA NA NOT_NAMED 1988-08-21 21:00:00 TS 15.5573 -22.7202 main 567 567 P_____________ AL151988 15.5573 -22.7202 TD 27 -1 10 332
1988234N13339 1988 59 NA NA NOT_NAMED 1988-08-22 00:00:00 TS 16.0000 -23.0000 25 hurdat_atl main 607 607 O_____________ hurdat_atl AL151988 16.0000 -23.0000 TD 25 -1 11 320
1988234N13339 1988 59 NA NA NOT_NAMED 1988-08-22 03:00:00 TS 16.3726 -23.4200 main 660 660 P_____________ AL151988 16.3726 -23.4200 TD 27 -1 11 309
1988234N13339 1988 59 NA NA NOT_NAMED 1988-08-22 06:00:00 TS 16.7000 -23.9000 30 hurdat_atl main 720 720 O_____________ hurdat_atl AL151988 16.7000 -23.9000 TD 30 -1 11 305
1988234N13339 1988 59 NA NA NOT_NAMED 1988-08-22 09:00:00 TS 17.0074 -24.3577 main 781 781 P_____________ AL151988 17.0074 -24.3577 TD 30 -1 11 305
1988234N13339 1988 59 NA NA NOT_NAMED 1988-08-22 12:00:00 TS 17.3000 -24.8000 30 hurdat_atl main 832 832 O_____________ hurdat_atl AL151988 17.3000 -24.8000 TD 30 -1 10 306
1988234N13339 1988 59 NA NA NOT_NAMED 1988-08-22 15:00:00 TS 17.5998 -25.2002 main 884 884 P_____________ AL151988 17.5998 -25.2002 TD 30 -1 10 308
1988234N13339 1988 59 NA NA NOT_NAMED 1988-08-22 18:00:00 TS 17.9000 -25.6000 30 hurdat_atl main 935 935 O_____________ hurdat_atl AL151988 17.9000 -25.6000 TD 30 -1 10 308
1988234N13339 1988 59 NA NA NOT_NAMED 1988-08-22 21:00:00 TS 18.2148 -26.0201 main 976 976 P_____________ AL151988 18.2148 -26.0201 TD 30 -1 10 305
1988234N13339 1988 59 NA NA NOT_NAMED 1988-08-23 00:00:00 TS 18.5000 -26.5000 30 hurdat_atl main 1017 1017 O_____________ hurdat_atl AL151988 18.5000 -26.5000 TD 30 -1 11 297
1988234N13339 1988 59 NA NA NOT_NAMED 1988-08-23 03:00:00 TS 18.7149 -27.0702 main 1072 1072 P_____________ AL151988 18.7149 -27.0702 TD 30 -1 12 289
1988234N13339 1988 59 NA NA NOT_NAMED 1988-08-23 06:00:00 TS 18.9000 -27.7000 30 hurdat_atl main 1128 1128 O_____________ hurdat_atl AL151988 18.9000 -27.7000 TD 30 -1 13 288
1988234N13339 1988 59 NA NA NOT_NAMED 1988-08-23 09:00:00 TS 19.0998 -28.3426 main 1185 1185 P_____________ AL151988 19.0998 -28.3426 TD 30 -1 13 288
1988234N13339 1988 59 NA NA NOT_NAMED 1988-08-23 12:00:00 TS 19.3000 -29.0000 30 hurdat_atl main 1253 1253 O_____________ hurdat_atl AL151988 19.3000 -29.0000 TD 30 -1 13 288
1988234N13339 1988 59 NA NA NOT_NAMED 1988-08-23 15:00:00 TS 19.5073 -29.6575 main 1322 1322 P_____________ AL151988 19.5073 -29.6575 TD 30 -1 13 288
1988234N13339 1988 59 NA NA NOT_NAMED 1988-08-23 18:00:00 TS 19.7000 -30.3000 30 hurdat_atl main 1382 1382 O_____________ hurdat_atl AL151988 19.7000 -30.3000 TD 30 -1 12 287
1988234N13339 1988 59 NA NA NOT_NAMED 1988-08-23 21:00:00 TS 19.8571 -30.9002 main 1441 1441 P_____________ AL151988 19.8571 -30.9002 TD 30 -1 12 285
1988234N13339 1988 59 NA NA NOT_NAMED 1988-08-24 00:00:00 TS 20.0000 -31.5000 30 hurdat_atl main 1502 1502 O_____________ hurdat_atl AL151988 20.0000 -31.5000 TD 30 -1 12 284
1988234N13339 1988 59 NA NA NOT_NAMED 1988-08-24 03:00:00 TS 20.1573 -32.1350 main 1562 1562 P_____________ AL151988 20.1573 -32.1350 TD 30 -1 13 284
1988234N13339 1988 59 NA NA NOT_NAMED 1988-08-24 06:00:00 TS 20.3000 -32.8000 30 hurdat_atl main 1634 1634 O_____________ hurdat_atl AL151988 20.3000 -32.8000 TD 30 -1 13 281
1988234N13339 1988 59 NA NA NOT_NAMED 1988-08-24 09:00:00 TS 20.3998 -33.4928 main 1706 1706 P_____________ AL151988 20.3998 -33.4928 TD 30 -1 13 279
1988234N13339 1988 59 NA NA NOT_NAMED 1988-08-24 12:00:00 TS 20.5000 -34.2000 30 hurdat_atl main 1778 1778 O_____________ hurdat_atl AL151988 20.5000 -34.2000 TD 30 -1 13 281
1988234N13339 1988 59 NA NA NOT_NAMED 1988-08-24 15:00:00 TS 20.6497 -34.8999 main 1850 1849 P_____________ AL151988 20.6497 -34.8999 TD 30 -1 13 283
1988234N13339 1988 59 NA NA NOT_NAMED 1988-08-24 18:00:00 TS 20.8000 -35.6000 30 hurdat_atl main 1921 1921 O_____________ hurdat_atl AL151988 20.8000 -35.6000 TD 30 -1 13 280
1988234N13339 1988 59 NA NA NOT_NAMED 1988-08-24 21:00:00 TS 20.8849 -36.3154 main 1993 1993 P_____________ AL151988 20.8849 -36.3154 TD 30 -1 13 279
1988234N13339 1988 59 NA NA NOT_NAMED 1988-08-25 00:00:00 TS 21.0000 -37.0000 30 hurdat_atl main 2065 2065 O_____________ hurdat_atl AL151988 21.0000 -37.0000 TD 30 -1 12 287
1988234N13339 1988 59 NA NA NOT_NAMED 1988-08-25 03:00:00 TS 21.2262 -37.5479 main 2116 2116 P_____________ AL151988 21.2262 -37.5479 TD 30 -1 12 294
1988234N13339 1988 59 NA NA NOT_NAMED 1988-08-25 06:00:00 TS 21.5000 -38.2000 30 hurdat_atl main 2187 2187 O_____________ hurdat_atl AL151988 21.5000 -38.2000 TD 30 -1 16 289
1988234N13339 1988 59 NA NA NOT_NAMED 1988-08-25 09:00:00 TS 21.7511 -39.2198 main 2289 2289 P_____________ AL151988 21.7511 -39.2198 TD 30 -1 20 284
1988234N13339 1988 59 NA NA NOT_NAMED 1988-08-25 12:00:00 TS 22.0000 -40.3000 30 hurdat_atl main 2300 2270 O_____________ hurdat_atl AL151988 22.0000 -40.3000 TD 30 -1 18 286
1988234N13339 1988 59 NA NA NOT_NAMED 1988-08-25 15:00:00 TS 22.2490 -41.1379 main 2270 2252 P_____________ AL151988 22.2490 -41.1379 TD 30 -1 16 289
1988234N13339 1988 59 NA NA NOT_NAMED 1988-08-25 18:00:00 TS 22.5000 -41.9000 30 hurdat_atl main 2252 2234 O_____________ hurdat_atl AL151988 22.5000 -41.9000 TD 30 -1 15 289
1988234N13339 1988 59 NA NA NOT_NAMED 1988-08-25 21:00:00 TS 22.7492 -42.6779 main 2229 2218 P_____________ AL151988 22.7492 -42.6779 TD 30 -1 16 289
1988234N13339 1988 59 NA NA NOT_NAMED 1988-08-26 00:00:00 TS 23.0000 -43.5000 30 hurdat_atl main 2218 2196 O_____________ hurdat_atl AL151988 23.0000 -43.5000 TD 30 -1 17 287
1988234N13339 1988 59 NA NA NOT_NAMED 1988-08-26 03:00:00 TS 23.2498 -44.4278 main 2196 2181 P_____________ AL151988 23.2498 -44.4278 TD 22 -1 18 286
1988234N13339 1988 59 NA NA NOT_NAMED 1988-08-26 06:00:00 DS 23.5000 -45.4000 15 hurdat_atl main 2171 2086 O_____________ hurdat_atl AL151988 23.5000 -45.4000 WV 15 -3 18 286
1988234N13339 1988 59 NA NA NOT_NAMED 1988-08-26 09:00:00 DS 23.7494 -46.3504 main 2076 2005 P_____________ AL151988 23.7494 -46.3504 WV 15 -3 18 286
1988234N13339 1988 59 NA NA NOT_NAMED 1988-08-26 12:00:00 DS 24.0000 -47.3000 15 hurdat_atl main 1995 1913 O_____________ hurdat_atl AL151988 24.0000 -47.3000 WV 15 -3 18 286
1988234N13339 1988 59 NA NA NOT_NAMED 1988-08-26 15:00:00 DS 24.2494 -48.2504 main 1903 1836 P_____________ AL151988 24.2494 -48.2504 WV 15 -3 18 286
1988234N13339 1988 59 NA NA NOT_NAMED 1988-08-26 18:00:00 DS 24.5000 -49.2000 15 hurdat_atl main 1826 1748 O_____________ hurdat_atl AL151988 24.5000 -49.2000 WV 15 -3 18 286
1988234N13339 1988 59 NA NA NOT_NAMED 1988-08-26 21:00:00 DS 24.7494 -50.1504 main 1739 1677 P_____________ AL151988 24.7494 -50.1504 WV 15 -3 18 286
1988234N13339 1988 59 NA NA NOT_NAMED 1988-08-27 00:00:00 DS 25.0000 -51.1000 15 hurdat_atl main 1667 1594 O_____________ hurdat_atl AL151988 25.0000 -51.1000 WV 15 -3 18 286
1988234N13339 1988 59 NA NA NOT_NAMED 1988-08-27 03:00:00 DS 25.2494 -52.0504 main 1585 1529 P_____________ AL151988 25.2494 -52.0504 WV 15 -3 18 286
1988234N13339 1988 59 NA NA NOT_NAMED 1988-08-27 06:00:00 DS 25.5000 -53.0000 15 hurdat_atl main 1521 1454 O_____________ hurdat_atl AL151988 25.5000 -53.0000 WV 15 -3 18 286
1988234N13339 1988 59 NA NA NOT_NAMED 1988-08-27 09:00:00 DS 25.7494 -53.9504 main 1445 1397 P_____________ AL151988 25.7494 -53.9504 WV 15 -3 18 286
1988234N13339 1988 59 NA NA NOT_NAMED 1988-08-27 12:00:00 DS 26.0000 -54.9000 15 hurdat_atl main 1389 1331 O_____________ hurdat_atl AL151988 26.0000 -54.9000 WV 15 -3 18 286
1988234N13339 1988 59 NA NA NOT_NAMED 1988-08-27 15:00:00 DS 26.2419 -55.8506 main 1323 1285 P_____________ AL151988 26.2419 -55.8506 WV 15 -3 18 286
1988234N13339 1988 59 NA NA NOT_NAMED 1988-08-27 18:00:00 DS 26.5000 -56.8000 15 hurdat_atl main 1278 1238 O_____________ hurdat_atl AL151988 26.5000 -56.8000 WV 15 -3 18 288
1988234N13339 1988 59 NA NA NOT_NAMED 1988-08-27 21:00:00 DS 26.7919 -57.7503 main 1233 1205 P_____________ AL151988 26.7919 -57.7503 WV 15 -3 18 289
1988234N13339 1988 59 NA NA NOT_NAMED 1988-08-28 00:00:00 DS 27.1000 -58.7000 15 hurdat_atl main 1201 1174 O_____________ hurdat_atl AL151988 27.1000 -58.7000 WV 15 -3 18 290
1988234N13339 1988 59 NA NA NOT_NAMED 1988-08-28 03:00:00 DS 27.3994 -59.6505 main 1172 1157 P_____________ AL151988 27.3994 -59.6505 WV 15 -3 18 290
1988234N13339 1988 59 NA NA NOT_NAMED 1988-08-28 06:00:00 DS 27.7000 -60.6000 15 hurdat_atl main 1158 1145 O_____________ hurdat_atl AL151988 27.7000 -60.6000 WV 15 -3 18 290
1988234N13339 1988 59 NA NA NOT_NAMED 1988-08-28 09:00:00 DS 27.9993 -61.5505 main 1147 1144 P_____________ AL151988 27.9993 -61.5505 WV 15 -3 18 290
1988234N13339 1988 59 NA NA NOT_NAMED 1988-08-28 12:00:00 DS 28.3000 -62.5000 15 hurdat_atl main 1150 1145 O_____________ hurdat_atl AL151988 28.3000 -62.5000 WV 15 -3 18 290
1988234N13339 1988 59 NA NA NOT_NAMED 1988-08-28 15:00:00 DS 28.5993 -63.4505 main 1159 1158 P_____________ AL151988 28.5993 -63.4505 WV 15 -3 18 290
1988234N13339 1988 59 NA NA NOT_NAMED 1988-08-28 18:00:00 DS 28.9000 -64.4000 15 hurdat_atl main 1179 1167 O_____________ hurdat_atl AL151988 28.9000 -64.4000 WV 15 -3 18 290
1988234N13339 1988 59 NA NA NOT_NAMED 1988-08-28 21:00:00 DS 29.1993 -65.3506 main 1169 1116 P_____________ AL151988 29.1993 -65.3506 WV 15 -3 18 290
1988234N13339 1988 59 NA NA NOT_NAMED 1988-08-29 00:00:00 DS 29.5000 -66.3000 15 hurdat_atl main 1109 1022 O_____________ hurdat_atl AL151988 29.5000 -66.3000 WV 15 -3 18 290
1988234N13339 1988 59 NA NA NOT_NAMED 1988-08-29 03:00:00 DS 29.7993 -67.2506 main 1015 935 P_____________ AL151988 29.7993 -67.2506 WV 15 -3 18 290
1988234N13339 1988 59 NA NA NOT_NAMED 1988-08-29 06:00:00 DS 30.1000 -68.2000 15 hurdat_atl main 927 838 O_____________ hurdat_atl AL151988 30.1000 -68.2000 WV 15 -3 17 290
1988234N13339 1988 59 NA NA NOT_NAMED 1988-08-29 09:00:00 DS 30.3843 -69.1510 main 831 751 P_____________ AL151988 30.3843 -69.1510 WV 15 -3 17 290
1988234N13339 1988 59 NA NA NOT_NAMED 1988-08-29 12:00:00 DS 30.7000 -70.1000 15 hurdat_atl main 743 650 O_____________ hurdat_atl AL151988 30.7000 -70.1000 WV 15 -3 18 290
1988234N13339 1988 59 NA NA NOT_NAMED 1988-08-29 15:00:00 DS 30.9960 -71.1553 main 643 549 P_____________ AL151988 30.9960 -71.1553 WV 17 -3 18 296
1988234N13339 1988 59 NA NA NOT_NAMED 1988-08-29 18:00:00 TS 31.5000 -72.0000 20 hurdat_atl main 549 455 O_____________ hurdat_atl AL151988 31.5000 -72.0000 TD 20 -1 18 323
1988234N13339 1988 59 NA NA NOT_NAMED 1988-08-29 21:00:00 TS 32.4089 -72.3929 main 455 381 P_____________ AL151988 32.4089 -72.3929 TD 25 -1 21 348
1988234N13339 1988 59 NA NA NOT_NAMED 1988-08-30 00:00:00 TS 33.5000 -72.5000 30 hurdat_atl main 374 305 O_____________ hurdat_atl AL151988 33.5000 -72.5000 TD 30 -1 21 354
1988234N13339 1988 59 NA NA NOT_NAMED 1988-08-30 03:00:00 TS 34.4992 -72.6471 main 300 267 P_____________ AL151988 34.4992 -72.6471 TD 30 -1 20 0
1988234N13339 1988 59 NA NA NOT_NAMED 1988-08-30 06:00:00 TS 35.5000 -72.5000 30 hurdat_atl main 272 271 O_____________ hurdat_atl AL151988 35.5000 -72.5000 TD 30 -1 22 17
1988234N13339 1988 59 NA NA NOT_NAMED 1988-08-30 09:00:00 TS 36.5759 -71.8671 main 334 334 P_____________ AL151988 36.5759 -71.8671 TD 30 -1 23 31
1988234N13339 1988 59 NA NA NOT_NAMED 1988-08-30 12:00:00 TS 37.5000 -71.0000 30 hurdat_atl main 362 362 O_____________ hurdat_atl AL151988 37.5000 -71.0000 TD 30 -1 20 40
1988234N13339 1988 59 NA NA NOT_NAMED 1988-08-30 15:00:00 TS 38.0737 -70.2835 main 359 346 P_____________ AL151988 38.0737 -70.2835 TD 30 -1 15 50
1988234N13339 1988 59 NA NA NOT_NAMED 1988-08-30 18:00:00 TS 38.5000 -69.5000 30 hurdat_atl main 349 327 O_____________ hurdat_atl AL151988 38.5000 -69.5000 TD 30 -1 16 57
1988234N13339 1988 59 NA NA NOT_NAMED 1988-08-30 21:00:00 TS 38.9379 -68.6065 main 333 315 P_____________ AL151988 38.9379 -68.6065 TD 30 -1 18 57
1988234N13339 1988 59 NA NA NOT_NAMED 1988-08-31 00:00:00 TS 39.5000 -67.5000 30 hurdat_atl main 322 319 O_____________ hurdat_atl AL151988 39.5000 -67.5000 TD 30 -1 24 55
1988234N13339 1988 59 NA NA NOT_NAMED 1988-08-31 03:00:00 TS 40.3497 -66.0413 main 356 260 P_____________ AL151988 40.3497 -66.0413 TD 30 -1 29 52
1988234N13339 1988 59 NA NA NOT_NAMED 1988-08-31 06:00:00 TS 41.3000 -64.5000 30 hurdat_atl main 253 221 O_____________ hurdat_atl AL151988 41.3000 -64.5000 TD 30 -1 28 50
1988234N13339 1988 59 NA NA NOT_NAMED 1988-08-31 09:00:00 TS 42.1798 -63.1767 main 220 196 P_____________ AL151988 42.1798 -63.1767 TD 30 -1 25 47
1988234N13339 1988 59 NA NA NOT_NAMED 1988-08-31 12:00:00 TS 43.0000 -62.0000 30 hurdat_atl main 199 O_____________ hurdat_atl AL151988 43.0000 -62.0000 TD 30 -1 24 46

IBTrACS Databaseについて

本データベースは、米国NOAAが公開する1842年以降の世界の熱帯低気圧のベストトラックデータアーカイブInternational Best Track Archive for Climate Stewardship (IBTrACS)を、ウェブで閲覧しやすい形式に変換したものです。

最終更新日:2021-10-27